Time;durP1;ratioP1;P1;durP2;ratioP2;P2;SDS_P1;SDS_P2;PMS_P1;PMS_P2;Temp;Humidity;BMP_temperature;BMP_pressure;BME280_temperature;BME280_humidity;BME280_pressure;Samples;Min_cycle;Max_cycle;Signal;HPM_P1;HPM_P2
2023/05/12 00:00:17;;;;;;;0.47;0.47;;;;;;;;;;5018948;28;20211;-83
2023/05/12 00:02:43;;;;;;;0.60;0.60;;;;;;;;;;5017086;28;20200;-82
2023/05/12 00:05:09;;;;;;;0.50;0.50;;;;;;;;;;5016524;28;20702;-82
2023/05/12 00:07:35;;;;;;;0.70;0.70;;;;;;;;;;5016171;28;20223;-83
2023/05/12 00:10:01;;;;;;;0.60;0.60;;;;;;;;;;5015596;28;20267;-83
2023/05/12 00:12:27;;;;;;;0.60;0.60;;;;;;;;;;5015735;28;20224;-82
2023/05/12 00:14:53;;;;;;;0.60;0.60;;;;;;;;;;5020778;28;20188;-83
2023/05/12 00:17:19;;;;;;;0.60;0.60;;;;;;;;;;5028171;28;20238;-82
2023/05/12 00:19:45;;;;;;;0.47;0.47;;;;;;;;;;5027694;28;20554;-83
2023/05/12 00:22:12;;;;;;;0.50;0.50;;;;;;;;;;5026834;28;20702;-83
2023/05/12 00:24:38;;;;;;;0.67;0.67;;;;;;;;;;5025176;28;20181;-83
2023/05/12 00:27:05;;;;;;;0.60;0.60;;;;;;;;;;5018795;28;20208;-83
2023/05/12 00:29:31;;;;;;;0.47;0.47;;;;;;;;;;5017422;28;20176;-83
2023/05/12 00:31:57;;;;;;;0.57;0.57;;;;;;;;;;5016680;28;20220;-84
2023/05/12 00:34:23;;;;;;;0.50;0.50;;;;;;;;;;5016489;28;20180;-83
2023/05/12 00:36:49;;;;;;;0.60;0.60;;;;;;;;;;5015805;28;20196;-83
2023/05/12 00:39:15;;;;;;;0.50;0.50;;;;;;;;;;5016154;28;20208;-83
2023/05/12 00:41:41;;;;;;;0.50;0.50;;;;;;;;;;5016846;28;20634;-84
2023/05/12 00:44:07;;;;;;;0.50;0.50;;;;;;;;;;5016606;28;20215;-83
2023/05/12 00:46:33;;;;;;;0.60;0.60;;;;;;;;;;5016741;28;20181;-84
2023/05/12 00:48:59;;;;;;;0.60;0.60;;;;;;;;;;5016146;28;20211;-84
2023/05/12 00:51:25;;;;;;;0.60;0.60;;;;;;;;;;5016321;28;20213;-83
2023/05/12 00:53:52;;;;;;;0.60;0.60;;;;;;;;;;5015872;28;20781;-83
2023/05/12 00:56:19;;;;;;;0.50;0.50;;;;;;;;;;5019434;28;20181;-84
2023/05/12 00:58:45;;;;;;;0.50;0.50;;;;;;;;;;5020540;28;20230;-83
2023/05/12 01:01:11;;;;;;;0.50;0.50;;;;;;;;;;5021169;28;20177;-84
2023/05/12 01:03:37;;;;;;;0.50;0.50;;;;;;;;;;5019994;28;20200;-83
2023/05/12 01:06:03;;;;;;;0.40;0.40;;;;;;;;;;5019872;28;20177;-82
2023/05/12 01:08:30;;;;;;;0.50;0.50;;;;;;;;;;5021209;28;20272;-82
2023/05/12 01:10:56;;;;;;;0.50;0.50;;;;;;;;;;5020954;28;20754;-83
2023/05/12 01:13:22;;;;;;;0.60;0.60;;;;;;;;;;5016423;28;20236;-83
2023/05/12 01:15:49;;;;;;;0.50;0.50;;;;;;;;;;5016735;28;20529;-83
2023/05/12 01:18:16;;;;;;;0.50;0.50;;;;;;;;;;5018177;28;20191;-83
2023/05/12 01:20:43;;;;;;;0.60;0.60;;;;;;;;;;5036318;28;20290;-83
2023/05/12 01:23:09;;;;;;;0.57;0.57;;;;;;;;;;5039070;28;20208;-83
2023/05/12 01:25:36;;;;;;;0.40;0.40;;;;;;;;;;5047907;28;20270;-82
2023/05/12 01:28:03;;;;;;;0.50;0.50;;;;;;;;;;5046226;28;20305;-83
2023/05/12 01:30:31;;;;;;;0.40;0.40;;;;;;;;;;5039524;28;20183;-83
2023/05/12 01:32:57;;;;;;;0.50;0.50;;;;;;;;;;5038557;28;20306;-84
2023/05/12 01:35:23;;;;;;;0.40;0.40;;;;;;;;;;5038544;28;20176;-83
2023/05/12 01:37:50;;;;;;;0.50;0.50;;;;;;;;;;5038580;28;20191;-84
2023/05/12 01:40:16;;;;;;;0.50;0.50;;;;;;;;;;5039120;28;20172;-84
2023/05/12 01:42:43;;;;;;;0.50;0.50;;;;;;;;;;5039042;28;20222;-84
2023/05/12 01:45:09;;;;;;;0.50;0.50;;;;;;;;;;5039454;28;20275;-84
2023/05/12 01:47:35;;;;;;;0.50;0.50;;;;;;;;;;5040166;28;20664;-84
2023/05/12 01:50:01;;;;;;;0.50;0.50;;;;;;;;;;5040625;28;20218;-84
2023/05/12 01:52:27;;;;;;;0.50;0.50;;;;;;;;;;5038057;28;20220;-84
2023/05/12 01:54:53;;;;;;;0.43;0.43;;;;;;;;;;5038788;28;20187;-84
2023/05/12 01:57:19;;;;;;;0.50;0.50;;;;;;;;;;5038232;28;20175;-84
2023/05/12 01:59:45;;;;;;;0.57;0.57;;;;;;;;;;5038249;28;20189;-84
2023/05/12 02:02:11;;;;;;;0.50;0.50;;;;;;;;;;5038524;28;20310;-84
2023/05/12 02:04:37;;;;;;;0.37;0.37;;;;;;;;;;5038802;28;20184;-83
2023/05/12 02:07:03;;;;;;;0.50;0.50;;;;;;;;;;5038971;28;20201;-83
2023/05/12 02:09:29;;;;;;;0.60;0.60;;;;;;;;;;5048670;28;20194;-83
2023/05/12 02:11:55;;;;;;;0.60;0.60;;;;;;;;;;5053821;28;20191;-83
2023/05/12 02:14:21;;;;;;;0.50;0.50;;;;;;;;;;5053585;28;20231;-84
2023/05/12 02:16:51;;;;;;;0.50;0.50;;;;;;;;;;5054266;28;20195;-84
2023/05/12 02:19:17;;;;;;;0.50;0.50;;;;;;;;;;5057998;28;20255;-81
2023/05/12 02:21:45;;;;;;;0.50;0.50;;;;;;;;;;5057234;28;20164;-83
2023/05/12 02:24:11;;;;;;;0.50;0.50;;;;;;;;;;5056788;28;20326;-82
2023/05/12 02:26:37;;;;;;;0.50;0.50;;;;;;;;;;5056449;28;20183;-83
2023/05/12 02:29:03;;;;;;;0.60;0.60;;;;;;;;;;5047086;28;20278;-83
2023/05/12 02:31:28;;;;;;;0.57;0.57;;;;;;;;;;5031902;28;20214;-82
2023/05/12 02:33:54;;;;;;;0.70;0.70;;;;;;;;;;5035056;28;20203;-83
2023/05/12 02:36:20;;;;;;;0.50;0.50;;;;;;;;;;5036085;28;20176;-83
2023/05/12 02:38:46;;;;;;;0.60;0.60;;;;;;;;;;5035949;28;20187;-83
2023/05/12 02:41:12;;;;;;;0.73;0.73;;;;;;;;;;5037575;28;20182;-83
2023/05/12 02:43:38;;;;;;;0.60;0.60;;;;;;;;;;5038469;28;20219;-83
2023/05/12 02:46:04;;;;;;;0.60;0.60;;;;;;;;;;5038537;28;20179;-84
2023/05/12 02:48:30;;;;;;;0.50;0.50;;;;;;;;;;5038858;28;20179;-83
2023/05/12 02:50:56;;;;;;;0.53;0.53;;;;;;;;;;5038092;28;20241;-83
2023/05/12 02:53:22;;;;;;;0.53;0.53;;;;;;;;;;5036624;28;20562;-83
2023/05/12 02:55:48;;;;;;;0.50;0.50;;;;;;;;;;5037840;28;20176;-83
2023/05/12 02:58:14;;;;;;;0.50;0.50;;;;;;;;;;5037212;28;20623;-83
2023/05/12 03:00:40;;;;;;;0.70;0.70;;;;;;;;;;5036539;28;20206;-83
2023/05/12 03:03:06;;;;;;;0.63;0.63;;;;;;;;;;5036978;28;20192;-84
2023/05/12 03:05:32;;;;;;;0.60;0.60;;;;;;;;;;5038228;28;20229;-83
2023/05/12 03:07:58;;;;;;;0.50;0.50;;;;;;;;;;5038560;28;20222;-83
2023/05/12 03:10:24;;;;;;;0.60;0.60;;;;;;;;;;5036699;28;20282;-83
2023/05/12 03:12:50;;;;;;;0.40;0.40;;;;;;;;;;5036451;28;20220;-83
2023/05/12 03:15:16;;;;;;;0.40;0.40;;;;;;;;;;5038378;28;20294;-83
2023/05/12 03:17:42;;;;;;;0.50;0.50;;;;;;;;;;5038486;28;20635;-83
2023/05/12 03:20:08;;;;;;;0.60;0.60;;;;;;;;;;5038456;28;20278;-83
2023/05/12 03:22:35;;;;;;;0.70;0.70;;;;;;;;;;5037805;28;20397;-83
2023/05/12 03:25:02;;;;;;;0.50;0.50;;;;;;;;;;5038918;28;20190;-84
2023/05/12 03:27:28;;;;;;;0.40;0.40;;;;;;;;;;5037933;28;20263;-83
2023/05/12 03:29:54;;;;;;;0.60;0.60;;;;;;;;;;5038076;28;20199;-82
2023/05/12 03:32:20;;;;;;;0.53;0.53;;;;;;;;;;5036486;28;20211;-83
2023/05/12 03:34:46;;;;;;;0.60;0.60;;;;;;;;;;5037755;28;20198;-83
2023/05/12 03:37:12;;;;;;;0.57;0.57;;;;;;;;;;5038315;28;20230;-84
2023/05/12 03:39:38;;;;;;;0.50;0.50;;;;;;;;;;5042356;28;20651;-83
2023/05/12 03:42:04;;;;;;;0.60;0.60;;;;;;;;;;5038358;28;20203;-83
2023/05/12 03:44:30;;;;;;;0.43;0.43;;;;;;;;;;5037040;28;20221;-83
2023/05/12 03:46:56;;;;;;;0.50;0.50;;;;;;;;;;5037957;28;20286;-84
2023/05/12 03:49:22;;;;;;;0.60;0.60;;;;;;;;;;5038596;28;20172;-83
2023/05/12 03:51:48;;;;;;;0.60;0.60;;;;;;;;;;5038552;28;20214;-83
2023/05/12 03:54:14;;;;;;;0.57;0.57;;;;;;;;;;5038488;28;20186;-83
2023/05/12 03:56:40;;;;;;;0.50;0.50;;;;;;;;;;5038814;28;20553;-84
2023/05/12 03:59:06;;;;;;;0.60;0.60;;;;;;;;;;5039051;28;20234;-84
2023/05/12 04:01:32;;;;;;;0.60;0.60;;;;;;;;;;5038751;28;20190;-83
2023/05/12 04:03:58;;;;;;;0.60;0.60;;;;;;;;;;5037755;28;20772;-83
2023/05/12 04:06:24;;;;;;;0.40;0.40;;;;;;;;;;5037169;28;20358;-83
2023/05/12 04:08:50;;;;;;;0.50;0.50;;;;;;;;;;5038435;28;20176;-83
2023/05/12 04:11:16;;;;;;;0.50;0.50;;;;;;;;;;5038285;28;20222;-83
2023/05/12 04:13:42;;;;;;;0.60;0.60;;;;;;;;;;5037056;28;20200;-83
2023/05/12 04:16:08;;;;;;;0.60;0.60;;;;;;;;;;5037831;28;20650;-83
2023/05/12 04:18:35;;;;;;;0.60;0.60;;;;;;;;;;5041590;28;20267;-83
2023/05/12 04:21:01;;;;;;;0.60;0.60;;;;;;;;;;5044546;28;20187;-82
2023/05/12 04:23:27;;;;;;;0.70;0.70;;;;;;;;;;5043725;28;20206;-83
2023/05/12 04:25:54;;;;;;;0.50;0.50;;;;;;;;;;5044047;28;20198;-83
2023/05/12 04:28:20;;;;;;;0.60;0.60;;;;;;;;;;5044148;28;20254;-83
2023/05/12 04:30:46;;;;;;;0.60;0.60;;;;;;;;;;5043855;28;20191;-82
2023/05/12 04:33:12;;;;;;;0.50;0.50;;;;;;;;;;5044038;28;20238;-82
2023/05/12 04:35:38;;;;;;;0.60;0.60;;;;;;;;;;5044615;28;20248;-82
2023/05/12 04:38:04;;;;;;;0.70;0.70;;;;;;;;;;5044696;28;20192;-82
2023/05/12 04:40:30;;;;;;;0.57;0.57;;;;;;;;;;5043458;28;20191;-82
2023/05/12 04:42:56;;;;;;;0.40;0.40;;;;;;;;;;5042925;28;20223;-82
2023/05/12 04:45:22;;;;;;;0.60;0.60;;;;;;;;;;5042014;28;20200;-81
2023/05/12 04:47:48;;;;;;;0.50;0.50;;;;;;;;;;5043218;28;20654;-81
2023/05/12 04:50:14;;;;;;;0.53;0.53;;;;;;;;;;5043967;28;20182;-82
2023/05/12 04:52:40;;;;;;;0.50;0.50;;;;;;;;;;5044526;28;20230;-82
2023/05/12 04:55:06;;;;;;;0.50;0.50;;;;;;;;;;5043159;28;20172;-83
2023/05/12 04:57:32;;;;;;;0.50;0.50;;;;;;;;;;5042564;28;20226;-80
2023/05/12 04:59:58;;;;;;;0.53;0.53;;;;;;;;;;5044704;28;20180;-81
2023/05/12 05:02:25;;;;;;;0.50;0.50;;;;;;;;;;5044567;28;20204;-82
2023/05/12 05:04:51;;;;;;;0.63;0.63;;;;;;;;;;5044775;28;20199;-82
2023/05/12 05:07:17;;;;;;;0.50;0.50;;;;;;;;;;5050102;28;20380;-81
2023/05/12 05:09:43;;;;;;;0.50;0.50;;;;;;;;;;5058740;28;20157;-80
2023/05/12 05:12:09;;;;;;;0.60;0.60;;;;;;;;;;5058139;28;20230;-82
2023/05/12 05:14:35;;;;;;;0.60;0.60;;;;;;;;;;5057795;28;20175;-81
2023/05/12 05:17:01;;;;;;;0.57;0.57;;;;;;;;;;5042265;28;20180;-81
2023/05/12 05:19:28;;;;;;;0.50;0.50;;;;;;;;;;5033168;28;20592;-81
2023/05/12 05:21:54;;;;;;;0.50;0.50;;;;;;;;;;5033144;28;20215;-82
2023/05/12 05:24:20;;;;;;;0.43;0.43;;;;;;;;;;5034750;28;20176;-83
2023/05/12 05:26:46;;;;;;;0.60;0.60;;;;;;;;;;5034670;28;20180;-81
2023/05/12 05:29:12;;;;;;;0.50;0.50;;;;;;;;;;5034439;28;20180;-81
2023/05/12 05:31:38;;;;;;;0.70;0.70;;;;;;;;;;5035095;28;20701;-82
2023/05/12 05:34:05;;;;;;;0.60;0.60;;;;;;;;;;5035584;28;20220;-83
2023/05/12 05:36:31;;;;;;;0.60;0.60;;;;;;;;;;5036122;28;20246;-81
2023/05/12 05:38:57;;;;;;;0.60;0.60;;;;;;;;;;5030566;28;20183;-83
2023/05/12 05:41:23;;;;;;;0.50;0.50;;;;;;;;;;5017249;28;20172;-82
2023/05/12 05:43:49;;;;;;;0.60;0.60;;;;;;;;;;5012553;28;20224;-81
2023/05/12 05:46:15;;;;;;;0.60;0.60;;;;;;;;;;5019277;28;20199;-82
2023/05/12 05:48:41;;;;;;;0.60;0.60;;;;;;;;;;5015766;28;20636;-83
2023/05/12 05:51:10;;;;;;;0.50;0.50;;;;;;;;;;5029972;28;20261;-82
2023/05/12 05:53:36;;;;;;;0.40;0.40;;;;;;;;;;5019323;28;20224;-83
2023/05/12 05:56:02;;;;;;;0.60;0.60;;;;;;;;;;5017756;28;20275;-84
2023/05/12 05:58:28;;;;;;;0.50;0.50;;;;;;;;;;5014323;28;20643;-83
2023/05/12 06:00:54;;;;;;;0.60;0.60;;;;;;;;;;5020076;28;20195;-84
2023/05/12 06:03:20;;;;;;;0.50;0.50;;;;;;;;;;5020319;28;20708;-84
2023/05/12 06:05:46;;;;;;;0.50;0.50;;;;;;;;;;5023415;28;20184;-84
2023/05/12 06:08:12;;;;;;;0.50;0.50;;;;;;;;;;5021051;28;20281;-82
2023/05/12 06:10:41;;;;;;;0.70;0.70;;;;;;;;;;5021092;28;20227;-85
2023/05/12 06:13:10;;;;;;;0.50;0.50;;;;;;;;;;5022254;28;20300;-86
2023/05/12 06:15:36;;;;;;;0.40;0.40;;;;;;;;;;5022031;28;20177;-84
2023/05/12 06:18:03;;;;;;;0.50;0.50;;;;;;;;;;5024685;28;20266;-86
2023/05/12 06:20:29;;;;;;;0.50;0.50;;;;;;;;;;5027248;28;20191;-82
2023/05/12 06:22:55;;;;;;;0.60;0.60;;;;;;;;;;5029763;28;20188;-81
2023/05/12 06:25:21;;;;;;;0.70;0.70;;;;;;;;;;5031947;28;20193;-83
2023/05/12 06:27:47;;;;;;;0.53;0.53;;;;;;;;;;5024334;28;20613;-82
2023/05/12 06:30:13;;;;;;;0.50;0.50;;;;;;;;;;5023160;28;20264;-84
2023/05/12 06:32:39;;;;;;;0.43;0.43;;;;;;;;;;5022369;28;20216;-82
2023/05/12 06:35:06;;;;;;;0.47;0.47;;;;;;;;;;5021091;28;20172;-81
2023/05/12 06:37:32;;;;;;;0.60;0.60;;;;;;;;;;5022820;28;20246;-84
2023/05/12 06:39:58;;;;;;;0.50;0.50;;;;;;;;;;5022370;28;20267;-83
2023/05/12 06:42:24;;;;;;;0.40;0.40;;;;;;;;;;5025267;28;20204;-84
2023/05/12 06:44:50;;;;;;;0.50;0.50;;;;;;;;;;5027682;28;20192;-80
2023/05/12 06:47:16;;;;;;;0.50;0.50;;;;;;;;;;5025062;28;20191;-82
2023/05/12 06:49:42;;;;;;;0.40;0.40;;;;;;;;;;5026137;28;20176;-82
2023/05/12 06:52:08;;;;;;;0.50;0.50;;;;;;;;;;5025692;28;20224;-81
2023/05/12 06:54:34;;;;;;;0.47;0.47;;;;;;;;;;5025584;28;20176;-80
2023/05/12 06:57:00;;;;;;;0.50;0.50;;;;;;;;;;5028302;28;20181;-80
2023/05/12 06:59:26;;;;;;;0.60;0.60;;;;;;;;;;5026893;28;20340;-80
2023/05/12 07:01:52;;;;;;;0.50;0.50;;;;;;;;;;5025138;28;20212;-80
2023/05/12 07:04:18;;;;;;;0.50;0.50;;;;;;;;;;5024574;28;20639;-80
2023/05/12 07:06:44;;;;;;;0.53;0.53;;;;;;;;;;5025609;28;20187;-79
2023/05/12 07:09:10;;;;;;;0.50;0.50;;;;;;;;;;5025320;28;20225;-81
2023/05/12 07:11:36;;;;;;;0.47;0.47;;;;;;;;;;5024874;28;20274;-80
2023/05/12 07:14:02;;;;;;;0.50;0.50;;;;;;;;;;5025005;28;20203;-78
2023/05/12 07:16:31;;;;;;;0.60;0.60;;;;;;;;;;5027030;28;20250;-79
2023/05/12 07:18:57;;;;;;;0.50;0.50;;;;;;;;;;5027763;28;20207;-80
2023/05/12 07:21:23;;;;;;;0.40;0.40;;;;;;;;;;5029403;28;20181;-80
2023/05/12 07:23:49;;;;;;;0.50;0.50;;;;;;;;;;5028033;28;20219;-80
2023/05/12 07:26:15;;;;;;;0.40;0.40;;;;;;;;;;5029558;28;20172;-80
2023/05/12 07:28:41;;;;;;;0.60;0.60;;;;;;;;;;5031707;28;20184;-80
2023/05/12 07:31:08;;;;;;;0.50;0.50;;;;;;;;;;5025220;28;20444;-80
2023/05/12 07:33:34;;;;;;;0.50;0.50;;;;;;;;;;5026271;28;20204;-80
2023/05/12 07:36:01;;;;;;;0.50;0.50;;;;;;;;;;5027922;28;20168;-81
2023/05/12 07:38:27;;;;;;;0.60;0.60;;;;;;;;;;5034811;28;20188;-79
2023/05/12 07:40:53;;;;;;;0.50;0.50;;;;;;;;;;5025541;28;20207;-83
2023/05/12 07:43:19;;;;;;;0.40;0.40;;;;;;;;;;5027240;28;20196;-79
2023/05/12 07:45:46;;;;;;;0.40;0.40;;;;;;;;;;5028144;28;20203;-81
2023/05/12 07:48:12;;;;;;;0.70;0.70;;;;;;;;;;5023520;28;20196;-82
2023/05/12 07:50:38;;;;;;;0.60;0.60;;;;;;;;;;5022331;28;20185;-81
2023/05/12 07:53:04;;;;;;;0.50;0.50;;;;;;;;;;5024268;28;20355;-80
2023/05/12 07:55:32;;;;;;;0.53;0.53;;;;;;;;;;5025107;28;20177;-82
2023/05/12 07:57:58;;;;;;;0.60;0.60;;;;;;;;;;5028883;28;20203;-80
2023/05/12 08:00:24;;;;;;;0.50;0.50;;;;;;;;;;5029218;28;20180;-80
2023/05/12 08:02:50;;;;;;;0.30;0.30;;;;;;;;;;5028752;28;20235;-83
2023/05/12 08:05:16;;;;;;;0.40;0.40;;;;;;;;;;5027653;28;20184;-81
2023/05/12 08:07:42;;;;;;;0.30;0.30;;;;;;;;;;5029815;28;20208;-81
2023/05/12 08:10:10;;;;;;;0.50;0.50;;;;;;;;;;5030121;28;20173;-79
2023/05/12 08:12:36;;;;;;;0.30;0.30;;;;;;;;;;5029069;28;20216;-81
2023/05/12 08:15:02;;;;;;;0.40;0.40;;;;;;;;;;5029314;28;20203;-82
2023/05/12 08:17:28;;;;;;;0.40;0.40;;;;;;;;;;5029436;28;20181;-82
2023/05/12 08:19:54;;;;;;;0.47;0.47;;;;;;;;;;5027684;28;20177;-82
2023/05/12 08:22:20;;;;;;;0.40;0.40;;;;;;;;;;5029882;28;20278;-82
2023/05/12 08:24:46;;;;;;;0.40;0.40;;;;;;;;;;5030496;28;20180;-81
2023/05/12 08:27:12;;;;;;;0.40;0.40;;;;;;;;;;5028349;28;20256;-82
2023/05/12 08:29:38;;;;;;;0.67;0.67;;;;;;;;;;5028129;28;20185;-80
2023/05/12 08:32:04;;;;;;;0.40;0.40;;;;;;;;;;5029110;28;20613;-80
2023/05/12 08:34:31;;;;;;;0.40;0.40;;;;;;;;;;5029629;28;20179;-79
2023/05/12 08:36:57;;;;;;;0.50;0.50;;;;;;;;;;5029300;28;20207;-80
2023/05/12 08:39:23;;;;;;;0.50;0.50;;;;;;;;;;5028176;28;20173;-79
2023/05/12 08:41:56;;;;;;;0.40;0.40;;;;;;;;;;5029023;28;20181;-79
2023/05/12 08:44:22;;;;;;;0.40;0.40;;;;;;;;;;5029332;28;20261;-79
2023/05/12 08:46:48;;;;;;;0.50;0.50;;;;;;;;;;5029210;28;20219;-79
2023/05/12 08:49:16;;;;;;;0.50;0.50;;;;;;;;;;5029909;28;20176;-80
2023/05/12 08:51:44;;;;;;;0.40;0.40;;;;;;;;;;5030229;28;20299;-80
2023/05/12 08:54:11;;;;;;;0.40;0.40;;;;;;;;;;5029163;28;20189;-81
2023/05/12 08:56:38;;;;;;;0.40;0.40;;;;;;;;;;5017299;28;20185;-80
2023/05/12 08:59:05;;;;;;;0.40;0.40;;;;;;;;;;5016117;28;20181;-79
2023/05/12 09:01:34;;;;;;;0.40;0.40;;;;;;;;;;5007802;28;20605;-80
2023/05/12 09:04:00;;;;;;;0.50;0.50;;;;;;;;;;5004939;28;20652;-81
2023/05/12 09:06:26;;;;;;;0.47;0.47;;;;;;;;;;5005761;28;20188;-82
2023/05/12 09:08:52;;;;;;;0.40;0.40;;;;;;;;;;5003183;28;20188;-81
2023/05/12 09:11:20;;;;;;;0.43;0.43;;;;;;;;;;5010759;28;20181;-82
2023/05/12 09:13:48;;;;;;;0.40;0.40;;;;;;;;;;5022414;28;20192;-80
2023/05/12 09:16:14;;;;;;;0.40;0.40;;;;;;;;;;5024326;28;20177;-80
2023/05/12 09:18:53;;;;;;;0.40;0.40;;;;;;;;;;5023461;28;20238;-80
2023/05/12 09:21:19;;;;;;;0.40;0.40;;;;;;;;;;5022572;28;20185;-81
2023/05/12 09:24:05;;;;;;;0.40;0.40;;;;;;;;;;5021859;28;20204;-82
2023/05/12 09:26:32;;;;;;;0.40;0.40;;;;;;;;;;5023992;28;20196;-79
2023/05/12 09:29:05;;;;;;;0.40;0.40;;;;;;;;;;5024470;28;20184;-81
2023/05/12 09:31:31;;;;;;;0.50;0.50;;;;;;;;;;5024828;28;20204;-81
2023/05/12 09:33:57;;;;;;;0.40;0.40;;;;;;;;;;5024995;28;20265;-81
2023/05/12 09:36:24;;;;;;;0.40;0.40;;;;;;;;;;5024318;28;20187;-81
2023/05/12 09:39:03;;;;;;;0.40;0.40;;;;;;;;;;5024308;28;20550;-81
2023/05/12 09:41:29;;;;;;;0.30;0.30;;;;;;;;;;5023479;28;20168;-81
2023/05/12 09:43:55;;;;;;;0.30;0.30;;;;;;;;;;5023657;28;20207;-81
2023/05/12 09:46:21;;;;;;;0.30;0.30;;;;;;;;;;5024295;28;20180;-81
2023/05/12 09:48:47;;;;;;;0.40;0.40;;;;;;;;;;5023755;28;20180;-84
2023/05/12 09:51:19;;;;;;;0.40;0.40;;;;;;;;;;5022621;28;20187;-81
2023/05/12 09:53:45;;;;;;;0.30;0.30;;;;;;;;;;5025088;28;20212;-80
2023/05/12 09:56:12;;;;;;;0.33;0.33;;;;;;;;;;5025118;28;20180;-82
2023/05/12 09:58:42;;;;;;;0.40;0.40;;;;;;;;;;5025470;28;20191;-81
2023/05/12 10:01:08;;;;;;;0.40;0.40;;;;;;;;;;5025930;28;20177;-80
2023/05/12 10:03:35;;;;;;;0.40;0.40;;;;;;;;;;5025171;28;20212;-81
2023/05/12 10:06:02;;;;;;;0.30;0.30;;;;;;;;;;5024617;28;20187;-80
2023/05/12 10:08:38;;;;;;;0.30;0.30;;;;;;;;;;5026458;28;20190;-81
2023/05/12 10:11:05;;;;;;;0.30;0.30;;;;;;;;;;5027738;28;20184;-81
2023/05/12 10:13:32;;;;;;;0.40;0.40;;;;;;;;;;5024370;28;20216;-82
2023/05/12 10:15:59;;;;;;;0.33;0.33;;;;;;;;;;5021957;28;20671;-82
2023/05/12 10:18:25;;;;;;;0.40;0.40;;;;;;;;;;5019399;28;20184;-81
2023/05/12 10:20:52;;;;;;;0.40;0.40;;;;;;;;;;5025326;28;20195;-80
2023/05/12 10:23:18;;;;;;;0.40;0.40;;;;;;;;;;5044894;28;20196;-81
2023/05/12 10:25:44;;;;;;;0.50;0.50;;;;;;;;;;5046710;28;20176;-82
2023/05/12 10:28:11;;;;;;;0.40;0.40;;;;;;;;;;5047947;28;20176;-83
2023/05/12 10:30:38;;;;;;;0.40;0.40;;;;;;;;;;5046175;28;20224;-83
2023/05/12 10:33:07;;;;;;;0.30;0.30;;;;;;;;;;5052409;28;20215;-81
2023/05/12 10:35:33;;;;;;;0.33;0.33;;;;;;;;;;5046712;28;20165;-83
2023/05/12 10:38:10;;;;;;;0.30;0.30;;;;;;;;;;5030287;28;20188;-81
2023/05/12 10:40:36;;;;;;;0.40;0.40;;;;;;;;;;5027175;28;20712;-83
2023/05/12 10:43:03;;;;;;;0.40;0.40;;;;;;;;;;5042466;28;20200;-82
2023/05/12 10:45:35;;;;;;;0.30;0.30;;;;;;;;;;5039744;28;20188;-83
2023/05/12 10:48:05;;;;;;;0.20;0.20;;;;;;;;;;5041594;28;20409;-83
2023/05/12 10:50:32;;;;;;;0.30;0.30;;;;;;;;;;5042438;28;20610;-84
2023/05/12 10:52:58;;;;;;;0.40;0.40;;;;;;;;;;5029680;28;20601;-85
2023/05/12 10:55:31;;;;;;;0.30;0.30;;;;;;;;;;5026917;28;20183;-84
2023/05/12 10:58:04;;;;;;;0.30;0.30;;;;;;;;;;5024683;28;20173;-83
2023/05/12 11:00:30;;;;;;;0.30;0.30;;;;;;;;;;5024535;28;20187;-83
2023/05/12 11:02:56;;;;;;;0.40;0.40;;;;;;;;;;5029664;28;20205;-82
2023/05/12 11:05:22;;;;;;;0.30;0.30;;;;;;;;;;5038276;28;20266;-83
2023/05/12 11:07:49;;;;;;;0.33;0.33;;;;;;;;;;5039458;28;20187;-81
2023/05/12 11:10:15;;;;;;;0.50;0.50;;;;;;;;;;5029268;28;20184;-82
2023/05/12 11:12:42;;;;;;;0.50;0.50;;;;;;;;;;5032911;28;20262;-80
2023/05/12 11:15:08;;;;;;;0.50;0.50;;;;;;;;;;5035437;28;20180;-80
2023/05/12 11:17:39;;;;;;;0.50;0.50;;;;;;;;;;5040076;28;20253;-80
2023/05/12 11:20:05;;;;;;;0.40;0.40;;;;;;;;;;5013349;28;20231;-80
2023/05/12 11:22:32;;;;;;;0.47;0.47;;;;;;;;;;5036675;28;20227;-80
2023/05/12 11:24:58;;;;;;;0.40;0.40;;;;;;;;;;5032880;28;20175;-82
2023/05/12 11:27:24;;;;;;;0.50;0.50;;;;;;;;;;5025239;28;20207;-80
2023/05/12 11:30:01;;;;;;;0.40;0.40;;;;;;;;;;5037026;28;20545;-80
2023/05/12 11:32:28;;;;;;;0.43;0.43;;;;;;;;;;5033173;28;20211;-81
2023/05/12 11:34:54;;;;;;;0.43;0.43;;;;;;;;;;5037874;28;20187;-82
2023/05/12 11:37:21;;;;;;;0.40;0.40;;;;;;;;;;5037101;28;20215;-81
2023/05/12 11:39:47;;;;;;;0.40;0.40;;;;;;;;;;5023913;28;20276;-80
2023/05/12 11:42:13;;;;;;;0.50;0.50;;;;;;;;;;5035064;28;20295;-80
2023/05/12 11:44:46;;;;;;;0.40;0.40;;;;;;;;;;5029543;28;20183;-80
2023/05/12 11:47:13;;;;;;;0.40;0.40;;;;;;;;;;5040492;28;20183;-80
2023/05/12 11:49:46;;;;;;;0.50;0.50;;;;;;;;;;5027778;28;20263;-79
2023/05/12 11:52:13;;;;;;;0.60;0.60;;;;;;;;;;5037995;28;20682;-85
2023/05/12 11:54:39;;;;;;;0.50;0.50;;;;;;;;;;5024439;28;20187;-81
2023/05/12 11:57:05;;;;;;;0.40;0.40;;;;;;;;;;5024438;28;20590;-81
2023/05/12 11:59:32;;;;;;;0.43;0.43;;;;;;;;;;5021614;28;20219;-83
2023/05/12 12:01:59;;;;;;;0.50;0.50;;;;;;;;;;5023171;28;20215;-81
2023/05/12 12:04:35;;;;;;;0.43;0.43;;;;;;;;;;5029064;28;20168;-81
2023/05/12 12:07:02;;;;;;;0.30;0.30;;;;;;;;;;5028412;28;20195;-82
2023/05/12 12:09:31;;;;;;;0.40;0.40;;;;;;;;;;5023248;28;20183;-83
2023/05/12 12:11:58;;;;;;;0.40;0.40;;;;;;;;;;5033137;28;20273;-84
2023/05/12 12:14:24;;;;;;;0.50;0.50;;;;;;;;;;5017520;28;20215;-84
2023/05/12 12:16:50;;;;;;;0.40;0.40;;;;;;;;;;5018397;28;20639;-84
2023/05/12 12:19:16;;;;;;;0.40;0.40;;;;;;;;;;5020787;28;20180;-86
2023/05/12 12:21:42;;;;;;;0.40;0.40;;;;;;;;;;5017845;28;20176;-86
2023/05/12 12:24:08;;;;;;;0.30;0.30;;;;;;;;;;5036260;28;20385;-83
2023/05/12 12:26:34;;;;;;;0.40;0.40;;;;;;;;;;5025070;28;20195;-84
2023/05/12 12:29:00;;;;;;;0.40;0.40;;;;;;;;;;5019974;28;20180;-84
2023/05/12 12:31:26;;;;;;;0.30;0.30;;;;;;;;;;5019736;28;20265;-84
2023/05/12 12:33:53;;;;;;;0.30;0.30;;;;;;;;;;5022872;28;20200;-84
2023/05/12 12:36:19;;;;;;;0.30;0.30;;;;;;;;;;5041292;28;20337;-84
2023/05/12 12:38:45;;;;;;;0.30;0.30;;;;;;;;;;5032785;28;20639;-83
2023/05/12 12:41:10;;;;;;;0.40;0.40;;;;;;;;;;5033438;28;20179;-83
2023/05/12 12:43:36;;;;;;;0.40;0.40;;;;;;;;;;5026626;28;20200;-83
2023/05/12 12:46:03;;;;;;;0.40;0.40;;;;;;;;;;5024354;28;20168;-83
2023/05/12 12:48:30;;;;;;;0.40;0.40;;;;;;;;;;5033624;28;20179;-84
2023/05/12 12:50:56;;;;;;;0.50;0.50;;;;;;;;;;5031808;28;20188;-83
2023/05/12 12:53:23;;;;;;;0.40;0.40;;;;;;;;;;5025450;28;20216;-83
2023/05/12 12:55:49;;;;;;;0.30;0.30;;;;;;;;;;5036382;28;20184;-82
2023/05/12 12:58:15;;;;;;;0.33;0.33;;;;;;;;;;5024240;28;20233;-83
2023/05/12 13:00:41;;;;;;;0.40;0.40;;;;;;;;;;5031170;28;20180;-83
2023/05/12 13:03:07;;;;;;;0.40;0.40;;;;;;;;;;5030869;28;20198;-83
2023/05/12 13:05:33;;;;;;;0.40;0.40;;;;;;;;;;5041256;28;20179;-83
2023/05/12 13:07:59;;;;;;;0.40;0.40;;;;;;;;;;5041773;28;20172;-82
2023/05/12 13:10:25;;;;;;;0.50;0.50;;;;;;;;;;5043525;28;20199;-83
2023/05/12 13:12:51;;;;;;;0.40;0.40;;;;;;;;;;5041427;28;20601;-82
2023/05/12 13:15:17;;;;;;;0.47;0.47;;;;;;;;;;5043294;28;20176;-80
2023/05/12 13:17:46;;;;;;;0.30;0.30;;;;;;;;;;5043808;28;20191;-81
2023/05/12 13:20:13;;;;;;;0.40;0.40;;;;;;;;;;5043153;28;20322;-82
2023/05/12 13:22:39;;;;;;;0.43;0.43;;;;;;;;;;5042762;28;20200;-82
2023/05/12 13:25:09;;;;;;;0.60;0.60;;;;;;;;;;5041892;28;20184;-81
2023/05/12 13:27:35;;;;;;;0.50;0.50;;;;;;;;;;5042525;28;20203;-82
2023/05/12 13:30:08;;;;;;;0.50;0.50;;;;;;;;;;5040603;28;20187;-82
2023/05/12 13:32:34;;;;;;;0.60;0.60;;;;;;;;;;5041364;28;20250;-82
2023/05/12 13:35:00;;;;;;;0.60;0.60;;;;;;;;;;5041444;28;20253;-81
2023/05/12 13:37:26;;;;;;;0.50;0.50;;;;;;;;;;5041985;28;20191;-82
2023/05/12 13:39:52;;;;;;;0.43;0.43;;;;;;;;;;5042255;28;20584;-82
2023/05/12 13:42:20;;;;;;;0.40;0.40;;;;;;;;;;5040781;28;20753;-82
2023/05/12 13:44:47;;;;;;;0.43;0.43;;;;;;;;;;5041481;28;20270;-82
2023/05/12 13:47:13;;;;;;;0.40;0.40;;;;;;;;;;5043767;28;20183;-80
2023/05/12 13:49:39;;;;;;;0.40;0.40;;;;;;;;;;5042962;28;20180;-83
2023/05/12 13:52:06;;;;;;;0.50;0.50;;;;;;;;;;5042086;28;20211;-83
2023/05/12 13:54:32;;;;;;;0.50;0.50;;;;;;;;;;5043155;28;20184;-83
2023/05/12 13:56:58;;;;;;;0.40;0.40;;;;;;;;;;5041153;28;20233;-82
2023/05/12 13:59:24;;;;;;;0.30;0.30;;;;;;;;;;5042122;28;20211;-83
2023/05/12 14:01:49;;;;;;;0.40;0.40;;;;;;;;;;5044604;28;20175;-82
2023/05/12 14:04:15;;;;;;;0.40;0.40;;;;;;;;;;5044198;28;20621;-82
2023/05/12 14:06:42;;;;;;;0.33;0.33;;;;;;;;;;5044121;28;20262;-83
2023/05/12 14:09:08;;;;;;;0.60;0.60;;;;;;;;;;5045461;28;20222;-82
2023/05/12 14:11:34;;;;;;;0.40;0.40;;;;;;;;;;5045075;28;20207;-82
2023/05/12 14:14:02;;;;;;;0.40;0.40;;;;;;;;;;5044851;28;20204;-83
2023/05/12 14:16:28;;;;;;;0.50;0.50;;;;;;;;;;5047036;28;20184;-83
2023/05/12 14:18:54;;;;;;;0.40;0.40;;;;;;;;;;5047602;28;20289;-82
2023/05/12 14:21:20;;;;;;;0.40;0.40;;;;;;;;;;5047836;28;20239;-83
2023/05/12 14:23:46;;;;;;;0.40;0.40;;;;;;;;;;5046690;28;20234;-83
2023/05/12 14:26:12;;;;;;;0.47;0.47;;;;;;;;;;5048622;28;20167;-84
2023/05/12 14:28:38;;;;;;;0.40;0.40;;;;;;;;;;5049978;28;20179;-83
2023/05/12 14:31:05;;;;;;;0.30;0.30;;;;;;;;;;5057737;28;20191;-82
2023/05/12 14:33:31;;;;;;;0.50;0.50;;;;;;;;;;5059605;28;20207;-81
2023/05/12 14:35:57;;;;;;;0.40;0.40;;;;;;;;;;5055994;28;20226;-84
2023/05/12 14:38:23;;;;;;;0.30;0.30;;;;;;;;;;5047681;28;20263;-83